Time;durP1;ratioP1;P1;durP2;ratioP2;P2;SDS_P1;SDS_P2;PMS_P1;PMS_P2;Temp;Humidity;BMP_temperature;BMP_pressure;BME280_temperature;BME280_humidity;BME280_pressure;Samples;Min_cycle;Max_cycle;Signal;HPM_P1;HPM_P2
2022/01/30 00:01:52;;;;;;;4.67;4.37;;;;;;;2.14;56.94;93733.09;1628607;88;21057;-50
2022/01/30 00:04:18;;;;;;;5.87;5.37;;;;;;;2.10;56.97;93715.38;1602800;88;21443;-50
2022/01/30 00:06:45;;;;;;;5.08;4.78;;;;;;;2.12;57.07;93721.90;1598315;88;21066;-50
2022/01/30 00:09:20;;;;;;;5.25;4.78;;;;;;;2.21;56.78;93711.84;1585274;89;21104;-49
2022/01/30 00:11:49;;;;;;;4.53;4.22;;;;;;;2.31;56.28;93726.55;1598028;89;21059;-50
2022/01/30 00:14:16;;;;;;;4.30;4.10;;;;;;;2.36;55.98;93716.55;1609332;88;21184;-49
2022/01/30 00:16:42;;;;;;;4.37;4.08;;;;;;;2.32;56.05;93732.14;1609894;89;21059;-49
2022/01/30 00:19:22;;;;;;;4.15;3.85;;;;;;;2.28;56.46;93686.69;1599226;89;20973;-50
2022/01/30 00:21:45;;;;;;;4.35;4.15;;;;;;;2.25;56.23;93688.11;1578637;89;21115;-49
2022/01/30 00:24:14;;;;;;;3.83;3.62;;;;;;;2.25;56.64;93710.59;1630596;87;21002;-50
2022/01/30 00:26:39;;;;;;;4.87;4.55;;;;;;;2.23;56.60;93702.69;1628119;88;22525;-49
2022/01/30 00:29:06;;;;;;;4.37;4.08;;;;;;;2.21;56.83;93683.36;1608401;88;20982;-49
2022/01/30 00:31:35;;;;;;;4.00;3.80;;;;;;;2.20;56.81;93680.47;1599370;89;21046;-50
2022/01/30 00:34:02;;;;;;;4.12;3.80;;;;;;;2.25;56.78;93675.90;1610403;88;21027;-50
2022/01/30 00:36:31;;;;;;;3.90;3.60;;;;;;;2.27;56.67;93658.61;1610083;88;21020;-49
2022/01/30 00:38:59;;;;;;;4.83;4.45;;;;;;;2.30;56.49;93660.51;1592674;89;21242;-49
2022/01/30 00:41:26;;;;;;;6.10;5.70;;;;;;;2.26;56.18;93654.37;1610210;89;21425;-49
2022/01/30 00:43:53;;;;;;;4.58;4.28;;;;;;;2.26;56.53;93629.95;1610215;89;21067;-49
2022/01/30 00:46:19;;;;;;;5.25;4.50;;;;;;;2.27;56.41;93626.05;1595891;89;21427;-49
2022/01/30 00:48:47;;;;;;;4.97;4.58;;;;;;;2.29;56.71;93607.43;1564978;89;21153;-49
2022/01/30 00:51:16;;;;;;;5.90;4.30;;;;;;;2.33;56.71;93611.57;1561228;89;21234;-48
2022/01/30 00:53:44;;;;;;;4.70;4.30;;;;;;;2.34;57.04;93571.65;1611997;87;21018;-49
2022/01/30 00:56:11;;;;;;;3.85;3.58;;;;;;;2.30;56.92;93551.98;1627938;86;21110;-49
2022/01/30 00:58:38;;;;;;;6.15;4.67;;;;;;;2.31;56.76;93537.23;1626888;86;21012;-48
2022/01/30 01:01:05;;;;;;;4.35;4.05;;;;;;;2.33;56.70;93528.07;1631182;86;21608;-49
2022/01/30 01:03:32;;;;;;;5.15;4.67;;;;;;;2.34;56.61;93519.48;1608227;87;21169;-49
2022/01/30 01:05:59;;;;;;;5.15;4.65;;;;;;;2.40;56.66;93542.81;1625835;86;21027;-49
2022/01/30 01:08:47;;;;;;;4.47;4.15;;;;;;;2.44;56.36;93558.41;1616754;86;21573;-48
2022/01/30 01:11:50;;;;;;;5.72;5.25;;;;;;;2.44;55.87;93574.69;1647710;86;21028;-48
2022/01/30 01:24:38;;;;;;;4.70;4.30;;;;;;;2.77;53.49;93525.98;1628031;86;21044;-50
2022/01/30 01:27:05;;;;;;;4.40;4.10;;;;;;;2.74;53.37;93534.98;1629250;86;21037;-48
2022/01/30 01:29:32;;;;;;;5.00;4.60;;;;;;;2.75;53.62;93523.71;1636321;86;21787;-49
2022/01/30 01:31:59;;;;;;;3.90;3.67;;;;;;;2.76;53.56;93531.25;1638966;86;21593;-49
2022/01/30 01:34:36;;;;;;;4.28;3.98;;;;;;;2.73;53.66;93523.34;1614147;86;21073;-48
2022/01/30 01:37:00;;;;;;;3.77;3.52;;;;;;;2.72;53.88;93514.29;1626585;86;21594;-50
2022/01/30 01:39:27;;;;;;;3.50;3.30;;;;;;;2.74;54.21;93494.26;1631996;87;20970;-49
2022/01/30 01:41:55;;;;;;;5.35;4.85;;;;;;;2.75;54.02;93484.92;1626958;87;21160;-49
2022/01/30 01:44:34;;;;;;;6.22;5.72;;;;;;;2.73;54.45;93480.52;1617468;87;21146;-50
2022/01/30 01:46:57;;;;;;;4.03;3.72;;;;;;;2.72;53.92;93459.38;1590182;89;21175;-48
2022/01/30 01:49:28;;;;;;;4.47;4.10;;;;;;;2.80;54.01;93453.17;1597467;88;21062;-49
2022/01/30 01:52:14;;;;;;;4.37;4.08;;;;;;;2.82;54.22;93446.72;1587473;87;21054;-49
2022/01/30 01:54:20;;;;;;;4.30;3.75;;;;;;;2.76;54.44;93432.15;1615997;87;21510;-49
2022/01/30 01:56:47;;;;;;;3.92;3.65;;;;;;;2.72;54.69;93448.52;1598122;87;21117;-49
2022/01/30 01:59:18;;;;;;;3.92;3.65;;;;;;;2.70;54.76;93467.81;1589139;88;21145;-50
2022/01/30 02:02:01;;;;;;;4.03;3.65;;;;;;;2.71;54.91;93496.48;1603577;87;21471;-48
2022/01/30 02:04:28;;;;;;;3.55;3.35;;;;;;;2.72;55.14;93510.22;1584086;89;21059;-47
2022/01/30 02:07:10;;;;;;;3.47;3.27;;;;;;;2.69;55.32;93509.72;1582454;89;21225;-48
2022/01/30 02:09:29;;;;;;;3.58;3.37;;;;;;;2.68;55.64;93530.66;1617099;87;21098;-48
2022/01/30 02:11:54;;;;;;;3.67;3.47;;;;;;;2.73;55.57;93542.96;1629765;87;21093;-50
2022/01/30 02:14:40;;;;;;;6.05;5.55;;;;;;;2.76;55.39;93533.96;1630919;87;21533;-48
2022/01/30 02:27:49;;;;;;;;;;;;;;;2.85;56.64;93516.48;1601728;89;21482;-48
2022/01/30 02:30:19;;;;;;;4.50;3.50;;;;;;;2.90;56.68;93522.73;1610849;88;20177;-49
2022/01/30 02:32:47;;;;;;;4.03;3.75;;;;;;;2.90;56.72;93515.95;1614962;88;21849;-49
2022/01/30 02:35:13;;;;;;;4.12;3.90;;;;;;;2.87;56.88;93515.45;1610323;89;21452;-49
2022/01/30 02:37:40;;;;;;;5.10;4.70;;;;;;;2.84;56.86;93517.06;1592492;89;21947;-49
2022/01/30 02:40:11;;;;;;;4.03;3.77;;;;;;;2.86;56.67;93519.36;1571863;89;21009;-49
2022/01/30 02:42:42;;;;;;;3.50;3.30;;;;;;;2.92;56.80;93512.20;1610453;89;20996;-49
2022/01/30 02:45:10;;;;;;;4.70;4.05;;;;;;;2.91;56.76;93488.34;1610215;88;21145;-49
2022/01/30 02:47:51;;;;;;;3.30;3.00;;;;;;;2.87;56.71;93498.55;1610342;89;21582;-48
2022/01/30 02:50:17;;;;;;;3.40;3.20;;;;;;;2.73;56.92;93489.41;1580795;89;21010;-48
2022/01/30 02:52:42;;;;;;;4.75;4.10;;;;;;;2.66;57.15;93489.61;1627271;88;20987;-49
2022/01/30 02:55:11;;;;;;;3.95;3.70;;;;;;;2.71;56.88;93493.77;1634900;87;20975;-49
2022/01/30 02:57:38;;;;;;;3.30;3.15;;;;;;;2.78;56.44;93497.64;1638004;86;21162;-49
2022/01/30 03:00:07;;;;;;;3.50;3.30;;;;;;;2.88;55.74;93493.28;1637908;85;21555;-48
2022/01/30 03:02:33;;;;;;;3.60;3.40;;;;;;;2.92;55.53;93495.33;1631042;86;21027;-49
2022/01/30 03:05:00;;;;;;;4.50;4.20;;;;;;;2.92;55.35;93502.70;1637971;86;21168;-49
2022/01/30 03:07:27;;;;;;;4.10;3.70;;;;;;;2.86;55.52;93494.31;1604301;86;21103;-48
2022/01/30 03:09:56;;;;;;;3.98;3.60;;;;;;;2.83;55.62;93484.92;1603162;87;21863;-47
2022/01/30 03:12:22;;;;;;;4.15;3.75;;;;;;;2.84;55.39;93470.16;1602802;88;21497;-48
2022/01/30 03:14:49;;;;;;;4.55;4.15;;;;;;;2.85;55.42;93479.21;1613958;86;21531;-49
2022/01/30 03:17:15;;;;;;;19.85;10.25;;;;;;;2.85;55.24;93485.25;1631857;87;21483;-48
2022/01/30 03:19:42;;;;;;;8.48;5.72;;;;;;;2.83;55.11;93474.06;1615451;87;21083;-49
2022/01/30 03:22:13;;;;;;;7.72;6.70;;;;;;;2.80;55.21;93470.82;1601992;88;21188;-49
2022/01/30 03:24:39;;;;;;;5.65;5.08;;;;;;;2.79;55.32;93474.73;1632442;85;21015;-48
2022/01/30 03:27:20;;;;;;;61.98;31.05;;;;;;;2.83;55.21;93467.27;1588984;89;21211;-50
2022/01/30 03:29:51;;;;;;;50.40;25.68;;;;;;;2.88;55.04;93464.03;1597886;89;21034;-48
2022/01/30 03:32:22;;;;;;;40.35;19.12;;;;;;;2.94;54.87;93445.42;1577123;90;21016;-48
2022/01/30 03:34:48;;;;;;;43.78;22.15;;;;;;;3.01;54.87;93429.50;1554003;90;21188;-48
2022/01/30 03:37:15;;;;;;;41.58;28.73;;;;;;;3.10;54.86;93429.64;1581048;88;21199;-50
2022/01/30 03:39:43;;;;;;;60.65;32.20;;;;;;;3.14;54.72;93417.49;1579723;88;21131;-48
2022/01/30 03:42:11;;;;;;;30.97;17.77;;;;;;;3.18;54.42;93411.94;1575134;87;21011;-49
2022/01/30 03:44:37;;;;;;;18.35;10.88;;;;;;;3.21;54.12;93396.90;1572438;90;21089;-49
2022/01/30 03:47:06;;;;;;;6.08;4.97;;;;;;;3.17;54.10;93398.19;1595806;87;21695;-49
2022/01/30 03:49:34;;;;;;;47.75;22.27;;;;;;;3.11;54.15;93390.42;1604628;87;21085;-49
2022/01/30 03:52:01;;;;;;;71.35;35.05;;;;;;;3.03;54.44;93383.69;1542334;91;21052;-48
2022/01/30 03:54:30;;;;;;;13.90;8.73;;;;;;;3.06;54.58;93378.13;1578925;89;21053;-50
2022/01/30 03:56:56;;;;;;;9.15;7.20;;;;;;;3.09;54.41;93381.33;1583927;88;21128;-48
2022/01/30 03:59:25;;;;;;;15.88;10.20;;;;;;;3.08;54.66;93385.86;1603674;87;21156;-48
2022/01/30 04:01:51;;;;;;;4.35;3.95;;;;;;;3.06;54.69;93380.09;1604744;88;21157;-49
2022/01/30 04:04:18;;;;;;;8.25;6.62;;;;;;;2.96;54.58;93378.44;1606176;88;21097;-49
2022/01/30 04:06:46;;;;;;;6.65;5.45;;;;;;;2.93;54.67;93384.73;1594018;87;21714;-48
2022/01/30 04:09:18;;;;;;;5.85;4.55;;;;;;;2.95;54.79;93374.20;1599891;88;21152;-50
2022/01/30 04:11:53;;;;;;;8.00;5.78;;;;;;;2.90;54.89;93382.89;1612117;87;21131;-50
2022/01/30 04:14:39;;;;;;;6.10;4.95;;;;;;;2.86;54.97;93368.66;1595105;88;21050;-49
2022/01/30 04:17:09;;;;;;;3.58;3.37;;;;;;;2.83;54.68;93376.31;1607848;88;21105;-49
2022/01/30 04:19:47;;;;;;;4.30;4.00;;;;;;;2.81;54.39;93370.52;1621136;87;21004;-49
2022/01/30 04:22:32;;;;;;;9.45;7.10;;;;;;;2.76;54.58;93375.14;1623103;86;21097;-49
2022/01/30 04:25:19;;;;;;;12.82;8.70;;;;;;;2.72;54.89;93382.63;1599913;87;21084;-48
2022/01/30 04:28:01;;;;;;;4.47;4.08;;;;;;;2.72;55.10;93388.80;1610938;86;21040;-48
2022/01/30 04:30:31;;;;;;;7.58;6.95;;;;;;;2.75;54.84;93396.69;1577420;88;21003;-49
2022/01/30 04:33:10;;;;;;;6.40;5.85;;;;;;;2.77;54.96;93392.95;1614633;88;21164;-49
2022/01/30 04:35:56;;;;;;;6.97;6.20;;;;;;;2.78;55.03;93380.31;1602175;89;21099;-49
2022/01/30 04:38:44;;;;;;;4.65;4.25;;;;;;;2.81;55.19;93397.09;1583614;88;21138;-49
2022/01/30 04:55:38;;;;;;;4.15;3.87;;;;;;;2.91;55.24;93384.41;1633477;86;21028;-49
2022/01/30 04:57:53;;;;;;;4.85;4.55;;;;;;;2.84;55.48;93381.91;1635856;86;21019;-49
2022/01/30 05:06:03;;;;;;;19.50;17.80;;;;;;;2.64;56.52;93355.49;1577300;88;21489;-49
2022/01/30 05:08:39;;;;;;;11.18;10.20;;;;;;;2.61;56.84;93357.72;1596866;87;21434;-48
2022/01/30 05:11:14;;;;;;;13.75;12.45;;;;;;;2.60;56.83;93350.19;1637994;87;21061;-49
2022/01/30 05:13:59;;;;;;;7.05;6.53;;;;;;;2.53;57.06;93329.26;1636031;86;22259;-48
2022/01/30 05:16:38;;;;;;;6.65;6.15;;;;;;;2.43;58.07;93318.09;1602473;88;20996;-49
2022/01/30 05:19:17;;;;;;;7.12;6.53;;;;;;;2.34;58.41;93317.36;1592989;88;21191;-48
2022/01/30 05:22:03;;;;;;;5.50;5.03;;;;;;;2.31;58.62;93310.70;1591344;89;21096;-49
2022/01/30 05:24:33;;;;;;;4.95;4.50;;;;;;;2.34;58.78;93314.65;1588087;88;21589;-48
2022/01/30 05:27:07;;;;;;;6.28;5.70;;;;;;;2.35;58.94;93297.78;1591650;87;21048;-49
2022/01/30 05:29:45;;;;;;;4.62;4.22;;;;;;;2.33;59.12;93297.46;1588306;88;21049;-48
2022/01/30 05:32:15;;;;;;;4.67;4.37;;;;;;;2.31;59.17;93288.38;1628880;85;21151;-48
2022/01/30 05:35:01;;;;;;;5.20;4.80;;;;;;;2.30;59.01;93273.30;1604142;88;21092;-48
2022/01/30 05:37:31;;;;;;;10.25;7.80;;;;;;;2.32;59.27;93262.77;1606259;89;21217;-49
2022/01/30 05:40:14;;;;;;;5.47;4.58;;;;;;;2.33;59.02;93252.70;1615131;88;21019;-49
2022/01/30 05:42:44;;;;;;;9.68;7.97;;;;;;;2.31;59.34;93260.50;1572219;88;21114;-49
2022/01/30 05:45:37;;;;;;;5.87;5.37;;;;;;;2.29;59.54;93277.20;1616942;86;21174;-48
2022/01/30 05:48:08;;;;;;;5.10;4.70;;;;;;;2.26;60.27;93261.02;1627148;86;21539;-52
2022/01/30 05:50:41;;;;;;;4.33;4.03;;;;;;;2.14;61.99;93245.48;1599079;87;20987;-53
2022/01/30 05:53:09;;;;;;;5.35;4.85;;;;;;;2.03;63.25;93221.95;1619370;87;21014;-51
2022/01/30 05:55:38;;;;;;;5.25;4.33;;;;;;;1.94;63.89;93243.53;1622184;87;21034;-49
2022/01/30 05:58:05;;;;;;;4.33;3.98;;;;;;;1.84;64.91;93224.23;1608746;87;21919;-50
2022/01/30 06:00:40;;;;;;;8.88;5.83;;;;;;;1.73;65.29;93226.45;1576939;87;21157;-50
2022/01/30 06:03:08;;;;;;;12.30;8.60;;;;;;;1.70;65.19;93230.03;1608905;87;20966;-51
2022/01/30 06:05:35;;;;;;;9.38;6.87;;;;;;;1.70;65.42;93230.63;1618045;87;21061;-49
2022/01/30 06:08:16;;;;;;;9.13;7.65;;;;;;;1.73;65.33;93248.75;1585867;87;21268;-50
2022/01/30 06:10:39;;;;;;;9.90;5.50;;;;;;;1.70;65.52;93240.87;1618435;86;20983;-51
2022/01/30 06:13:05;;;;;;;8.73;7.08;;;;;;;1.66;66.29;93241.56;1599655;87;21614;-50
2022/01/30 06:15:34;;;;;;;8.30;7.47;;;;;;;1.65;66.56;93219.71;1619114;87;21571;-51
2022/01/30 06:18:05;;;;;;;8.25;6.00;;;;;;;1.70;66.78;93218.44;1620194;87;21062;-49
2022/01/30 06:20:49;;;;;;;8.15;6.62;;;;;;;1.66;66.95;93217.17;1545398;91;21466;-48
2022/01/30 06:23:36;;;;;;;8.95;6.85;;;;;;;1.64;67.03;93210.06;1550362;92;21407;-48
2022/01/30 06:26:22;;;;;;;16.52;9.70;;;;;;;1.64;67.14;93209.29;1559000;89;21578;-50
2022/01/30 06:29:07;;;;;;;6.03;5.42;;;;;;;1.66;66.84;93228.02;1582146;89;21140;-50
2022/01/30 06:31:47;;;;;;;10.88;7.78;;;;;;;1.64;66.57;93224.19;1533906;88;21498;-50
2022/01/30 06:34:16;;;;;;;8.15;7.33;;;;;;;1.64;66.43;93231.74;1586929;88;21421;-50
2022/01/30 06:37:02;;;;;;;5.90;5.37;;;;;;;1.73;66.23;93236.55;1550194;90;21586;-50
2022/01/30 06:39:33;;;;;;;10.63;8.70;;;;;;;1.80;65.94;93223.58;1568737;82;21018;-47
2022/01/30 06:42:03;;;;;;;5.78;5.28;;;;;;;1.84;65.73;93210.68;1711351;82;21078;-48
2022/01/30 06:44:49;;;;;;;5.17;4.70;;;;;;;1.86;65.40;93183.90;1705902;83;21049;-47
2022/01/30 06:47:43;;;;;;;4.62;4.28;;;;;;;1.85;65.04;93172.89;1720520;82;20980;-48
2022/01/30 06:50:28;;;;;;;7.10;5.90;;;;;;;1.84;64.24;93140.20;1719537;83;21170;-47
2022/01/30 06:52:56;;;;;;;8.50;7.40;;;;;;;1.86;63.98;93136.46;1655425;82;21066;-48
2022/01/30 06:55:44;;;;;;;5.30;4.65;;;;;;;1.96;63.77;93134.80;1719451;82;21112;-47
2022/01/30 06:58:29;;;;;;;5.15;4.75;;;;;;;2.13;63.21;93156.57;1705272;83;21045;-48
2022/01/30 07:01:14;;;;;;;8.65;7.15;;;;;;;2.27;62.71;93164.88;1725315;83;21446;-47
2022/01/30 07:04:01;;;;;;;10.18;8.65;;;;;;;2.37;62.33;93163.81;1659586;86;21185;-49
2022/01/30 07:06:32;;;;;;;8.83;6.78;;;;;;;2.49;61.91;93152.22;1649705;85;21203;-48
2022/01/30 07:08:59;;;;;;;30.17;27.17;;;;;;;2.55;61.72;93151.25;1638149;84;21054;-48
2022/01/30 07:11:32;;;;;;;11.22;9.05;;;;;;;2.63;61.85;93162.62;1646667;81;21124;-47
2022/01/30 07:13:59;;;;;;;10.40;8.68;;;;;;;2.74;61.49;93165.77;1631683;85;21049;-48
2022/01/30 07:16:25;;;;;;;8.60;6.80;;;;;;;2.78;61.32;93167.77;1618220;86;21208;-49
2022/01/30 07:18:52;;;;;;;7.47;6.58;;;;;;;2.84;61.11;93135.56;1631422;85;21033;-47
2022/01/30 07:21:19;;;;;;;7.85;6.78;;;;;;;2.92;60.49;93138.81;1628392;85;21526;-48
2022/01/30 07:23:45;;;;;;;8.45;7.75;;;;;;;3.02;59.60;93151.30;1627454;85;21081;-49
2022/01/30 07:26:12;;;;;;;7.90;7.10;;;;;;;3.13;58.68;93159.84;1629664;85;21131;-47
2022/01/30 07:28:39;;;;;;;6.00;5.50;;;;;;;3.30;57.44;93163.94;1630367;85;21156;-47
2022/01/30 07:31:06;;;;;;;6.25;5.65;;;;;;;3.44;56.49;93178.41;1630273;85;21026;-47
2022/01/30 07:33:35;;;;;;;7.33;6.37;;;;;;;3.43;56.37;93178.25;1628578;85;21520;-47
2022/01/30 07:36:02;;;;;;;6.83;6.08;;;;;;;3.38;56.43;93147.56;1629159;85;21029;-48
2022/01/30 07:38:30;;;;;;;8.33;6.67;;;;;;;3.40;56.34;93158.14;1628301;86;21033;-48
2022/01/30 07:40:57;;;;;;;6.62;5.00;;;;;;;3.53;54.86;93158.86;1631508;85;21161;-48
2022/01/30 07:43:24;;;;;;;5.50;4.90;;;;;;;3.61;54.40;93145.95;1628114;85;21025;-49
2022/01/30 07:45:52;;;;;;;6.78;6.17;;;;;;;3.66;54.35;93154.14;1630773;85;21013;-48
2022/01/30 07:48:19;;;;;;;5.83;4.62;;;;;;;3.67;53.73;93125.75;1628485;85;21092;-48
2022/01/30 07:50:46;;;;;;;8.70;6.58;;;;;;;3.70;51.94;93124.25;1626766;85;20989;-47
2022/01/30 07:53:12;;;;;;;7.33;6.22;;;;;;;3.79;52.25;93124.91;1619531;85;21148;-48
2022/01/30 07:55:39;;;;;;;4.92;4.40;;;;;;;3.87;51.48;93118.03;1627516;85;21612;-47
2022/01/30 07:58:06;;;;;;;5.40;4.80;;;;;;;3.93;50.28;93126.54;1629768;85;21006;-48
2022/01/30 08:00:33;;;;;;;5.53;5.03;;;;;;;3.97;50.94;93110.84;1626571;85;21505;-48
2022/01/30 08:02:59;;;;;;;5.78;5.25;;;;;;;4.00;51.65;93124.91;1630632;85;20992;-48
2022/01/30 08:05:27;;;;;;;5.20;4.70;;;;;;;4.09;51.74;93114.06;1629075;85;21469;-47
2022/01/30 08:07:54;;;;;;;8.35;6.62;;;;;;;4.17;51.55;93107.17;1619786;86;20957;-49
2022/01/30 08:10:21;;;;;;;9.68;6.55;;;;;;;4.24;51.56;93106.89;1628270;85;21090;-48
2022/01/30 08:12:47;;;;;;;7.60;6.08;;;;;;;4.35;50.52;93111.94;1630301;86;21001;-49
2022/01/30 08:15:15;;;;;;;6.97;6.37;;;;;;;4.47;49.43;93097.48;1625854;85;21076;-48
2022/01/30 08:17:43;;;;;;;5.70;5.20;;;;;;;4.60;48.96;93108.41;1611748;87;21850;-48
2022/01/30 08:20:10;;;;;;;10.15;7.95;;;;;;;4.82;48.45;93095.46;1638212;87;21013;-48
2022/01/30 08:22:47;;;;;;;4.92;4.53;;;;;;;5.01;48.21;93088.84;1644327;87;20980;-48
2022/01/30 08:25:16;;;;;;;5.42;4.95;;;;;;;5.15;46.82;93096.44;1642164;85;21490;-48
2022/01/30 08:27:43;;;;;;;6.37;5.00;;;;;;;5.28;45.53;93086.17;1646634;85;21543;-48
2022/01/30 08:30:12;;;;;;;10.75;6.75;;;;;;;5.38;45.15;93084.35;1645007;85;21206;-48
2022/01/30 08:32:44;;;;;;;6.67;5.55;;;;;;;5.42;44.78;93073.30;1635287;86;21444;-48
2022/01/30 08:35:12;;;;;;;7.92;5.72;;;;;;;5.49;45.06;93075.13;1675267;85;21204;-49
2022/01/30 08:37:39;;;;;;;9.03;6.87;;;;;;;5.63;44.58;93061.47;1627431;85;21127;-48
2022/01/30 08:40:09;;;;;;;27.55;13.00;;;;;;;5.76;44.46;93061.45;1628396;85;21045;-48
2022/01/30 08:42:36;;;;;;;7.87;5.80;;;;;;;5.92;44.17;93064.48;1630884;85;21130;-49
2022/01/30 08:45:08;;;;;;;18.55;11.68;;;;;;;6.07;43.76;93053.08;1654840;85;21003;-48
2022/01/30 08:47:35;;;;;;;37.38;17.90;;;;;;;6.24;44.14;93037.86;1629421;85;21033;-48
2022/01/30 08:50:03;;;;;;;14.20;8.73;;;;;;;6.47;43.41;93031.69;1635738;85;21029;-48
2022/01/30 08:52:30;;;;;;;6.58;5.62;;;;;;;6.60;42.70;93052.73;1631268;87;21567;-48
2022/01/30 08:54:56;;;;;;;7.35;6.33;;;;;;;6.64;43.04;93048.63;1609244;87;21206;-49
2022/01/30 08:57:23;;;;;;;5.45;4.95;;;;;;;6.68;43.60;93047.83;1640119;85;21480;-49
2022/01/30 08:59:52;;;;;;;5.20;4.70;;;;;;;6.78;43.12;93047.17;1669941;83;21053;-50
2022/01/30 09:02:19;;;;;;;4.90;4.37;;;;;;;6.83;42.93;93043.20;1642925;85;21117;-49
2022/01/30 09:04:46;;;;;;;7.17;4.92;;;;;;;6.91;42.64;93044.98;1637308;85;20993;-49
2022/01/30 09:07:14;;;;;;;5.70;5.03;;;;;;;7.00;42.76;93058.58;1615093;87;41260;-49
2022/01/30 09:09:42;;;;;;;6.87;4.90;;;;;;;7.01;42.61;93065.56;1633797;86;21009;-50
2022/01/30 09:12:11;;;;;;;10.53;7.60;;;;;;;7.08;42.43;93051.56;1633631;87;21124;-49
2022/01/30 09:14:39;;;;;;;9.98;6.90;;;;;;;7.23;42.58;93046.28;1659050;86;21091;-48
2022/01/30 09:17:12;;;;;;;9.20;6.62;;;;;;;7.34;42.07;93036.32;1639720;86;21031;-52
2022/01/30 09:19:36;;;;;;;9.40;7.15;;;;;;;7.45;41.60;93029.71;1633776;87;21137;-50
2022/01/30 09:22:03;;;;;;;9.83;7.53;;;;;;;7.66;41.30;93029.23;1633659;87;21033;-49
2022/01/30 09:24:30;;;;;;;6.83;5.90;;;;;;;7.84;41.68;93028.45;1633991;87;21025;-50
2022/01/30 09:26:57;;;;;;;10.00;7.30;;;;;;;8.01;40.71;93043.19;1633631;87;21037;-50
2022/01/30 09:29:23;;;;;;;16.48;8.73;;;;;;;8.25;40.53;93017.10;1634092;87;21531;-49
2022/01/30 09:31:50;;;;;;;7.12;4.80;;;;;;;8.50;40.38;93034.30;1633788;86;21779;-55
2022/01/30 09:34:17;;;;;;;18.12;13.55;;;;;;;8.63;39.67;93023.80;1663209;85;20965;-50
2022/01/30 09:36:43;;;;;;;4.70;3.90;;;;;;;8.64;39.65;93042.49;1666454;86;21087;-48
2022/01/30 09:39:10;;;;;;;6.00;4.70;;;;;;;8.33;39.23;93024.47;1666481;86;21700;-53
2022/01/30 09:41:36;;;;;;;4.85;4.35;;;;;;;8.02;40.34;93031.00;1647563;86;21078;-49
2022/01/30 09:44:03;;;;;;;7.00;4.83;;;;;;;7.67;41.09;93020.55;1666615;86;21128;-52
2022/01/30 09:46:32;;;;;;;4.20;3.80;;;;;;;7.54;42.01;93032.36;1633703;87;21037;-52
2022/01/30 09:48:59;;;;;;;6.05;4.80;;;;;;;7.45;42.17;93028.94;1634072;86;20989;-50
2022/01/30 09:51:26;;;;;;;5.20;4.62;;;;;;;7.38;42.24;93030.05;1670250;85;20995;-49
2022/01/30 09:53:52;;;;;;;5.78;5.28;;;;;;;7.36;42.45;93028.40;1666969;86;21039;-48
2022/01/30 09:56:20;;;;;;;7.90;5.35;;;;;;;7.32;42.65;93028.45;1615621;86;21148;-48
2022/01/30 09:58:47;;;;;;;6.08;4.90;;;;;;;7.35;43.10;93021.42;1633958;86;20998;-48
2022/01/30 10:01:13;;;;;;;4.37;4.00;;;;;;;7.21;42.77;93037.20;1633560;87;21049;-49
2022/01/30 10:03:40;;;;;;;5.53;5.00;;;;;;;6.98;43.27;93046.77;1633962;87;21041;-48
2022/01/30 10:06:16;;;;;;;5.37;4.75;;;;;;;6.85;43.42;93034.55;1634144;87;20974;-48
2022/01/30 10:08:46;;;;;;;7.15;5.95;;;;;;;6.77;44.19;93032.77;1648299;85;21695;-49
2022/01/30 10:11:29;;;;;;;7.92;6.58;;;;;;;6.88;44.01;93032.25;1615719;87;21547;-47
2022/01/30 10:14:08;;;;;;;9.75;8.75;;;;;;;7.10;43.59;93032.09;1634169;86;21445;-52
2022/01/30 10:16:45;;;;;;;7.62;6.40;;;;;;;7.29;43.46;93030.73;1634042;87;21034;-48
2022/01/30 10:19:23;;;;;;;4.58;4.15;;;;;;;7.61;43.13;93032.01;1628507;87;21132;-49
2022/01/30 10:22:08;;;;;;;6.22;5.10;;;;;;;8.04;42.36;93012.12;1629942;87;21128;-47
2022/01/30 10:24:38;;;;;;;9.43;7.25;;;;;;;8.49;41.19;93019.86;1633994;87;21014;-48
2022/01/30 10:27:23;;;;;;;4.70;4.30;;;;;;;8.94;41.00;93026.12;1633187;86;21104;-49
2022/01/30 10:29:58;;;;;;;5.28;4.22;;;;;;;9.28;39.81;93012.98;1634065;87;21060;-47
2022/01/30 10:32:26;;;;;;;5.62;5.03;;;;;;;9.57;39.19;93007.31;1634110;86;21452;-48
2022/01/30 10:35:09;;;;;;;4.62;4.22;;;;;;;9.46;39.63;93018.19;1634013;87;21181;-47
2022/01/30 10:37:39;;;;;;;4.05;3.65;;;;;;;9.27;39.29;93019.70;1641900;86;21016;-48
2022/01/30 10:40:16;;;;;;;3.80;3.40;;;;;;;8.92;39.96;93013.50;1634484;86;20981;-48
2022/01/30 10:42:47;;;;;;;6.42;4.87;;;;;;;8.44;40.94;93018.41;1630028;86;21040;-49
2022/01/30 10:45:31;;;;;;;6.85;4.70;;;;;;;8.05;42.07;93015.00;1634403;87;21017;-50
2022/01/30 10:48:21;;;;;;;4.37;3.70;;;;;;;7.88;43.21;93015.95;1634155;87;21103;-48
2022/01/30 10:50:47;;;;;;;5.95;5.45;;;;;;;7.71;43.43;93012.90;1660886;86;20980;-49
2022/01/30 10:53:23;;;;;;;4.03;3.72;;;;;;;7.69;43.90;93017.34;1634252;86;21484;-50
2022/01/30 10:55:50;;;;;;;3.90;3.60;;;;;;;7.62;44.00;93030.78;1634528;87;21064;-48
2022/01/30 10:58:22;;;;;;;6.95;6.35;;;;;;;7.45;43.71;93021.50;1616045;87;20982;-48
2022/01/30 11:00:54;;;;;;;6.62;6.03;;;;;;;7.40;44.12;93029.00;1634644;86;21267;-48
2022/01/30 11:03:45;;;;;;;6.28;4.87;;;;;;;7.57;43.86;93036.14;1616328;87;21025;-47
2022/01/30 11:06:14;;;;;;;4.37;3.92;;;;;;;7.77;43.31;93041.14;1633932;86;21004;-49
2022/01/30 11:08:43;;;;;;;4.12;3.50;;;;;;;8.06;43.54;93030.20;1634154;86;21032;-47
2022/01/30 11:11:31;;;;;;;6.25;5.62;;;;;;;8.12;43.32;93031.06;1664151;86;21067;-47
2022/01/30 11:19:21;;;;;;;3.95;3.65;;;;;;;8.69;42.43;93023.25;1624551;86;21076;-48
2022/01/30 11:21:53;;;;;;;9.10;7.37;;;;;;;9.47;40.65;93002.59;1634419;87;21041;-49
2022/01/30 11:24:20;;;;;;;4.17;3.77;;;;;;;10.34;39.36;93010.88;1634561;86;21539;-49
2022/01/30 11:26:47;;;;;;;4.60;4.15;;;;;;;10.77;36.43;92996.08;1615960;87;21807;-49
2022/01/30 11:29:16;;;;;;;3.80;3.30;;;;;;;10.65;35.56;93002.61;1633394;86;21029;-48
2022/01/30 11:31:44;;;;;;;5.10;3.42;;;;;;;10.63;35.91;92999.59;1634331;86;21519;-49
2022/01/30 11:34:10;;;;;;;7.15;4.03;;;;;;;10.81;36.48;92982.11;1631732;87;21520;-49
2022/01/30 11:36:39;;;;;;;2.70;2.37;;;;;;;10.90;35.94;92987.41;1636135;86;21016;-50
2022/01/30 11:39:07;;;;;;;2.60;2.40;;;;;;;11.08;33.61;92967.13;1634265;87;21107;-49
2022/01/30 11:41:34;;;;;;;4.37;2.70;;;;;;;11.00;33.46;92961.21;1634360;86;21009;-50
2022/01/30 11:44:22;;;;;;;3.58;2.00;;;;;;;11.23;33.10;92956.70;1634063;86;21065;-50
2022/01/30 11:47:03;;;;;;;2.98;2.30;;;;;;;11.74;32.86;92961.15;1655161;86;21000;-50
2022/01/30 11:49:49;;;;;;;2.95;2.25;;;;;;;11.92;31.66;92948.29;1634183;86;21136;-50
2022/01/30 11:52:18;;;;;;;3.00;2.00;;;;;;;12.29;31.47;92955.08;1634318;87;21767;-51
2022/01/30 11:54:57;;;;;;;4.58;3.12;;;;;;;12.47;31.40;92929.75;1634107;86;21006;-50
2022/01/30 11:57:29;;;;;;;10.23;9.43;;;;;;;12.61;31.61;92943.91;1634358;86;21024;-51
2022/01/30 12:00:00;;;;;;;7.03;3.80;;;;;;;13.18;30.88;92935.79;1658095;86;21479;-50
2022/01/30 12:02:32;;;;;;;5.17;2.60;;;;;;;13.88;30.25;92930.45;1634429;86;21441;-52
2022/01/30 12:05:09;;;;;;;3.37;2.90;;;;;;;13.73;29.13;92944.61;1634103;87;21140;-53
2022/01/30 12:07:49;;;;;;;2.72;2.50;;;;;;;13.51;30.38;92925.38;1634312;87;21101;-51
2022/01/30 12:10:25;;;;;;;3.75;2.40;;;;;;;13.58;29.65;92943.41;1634147;86;21484;-53
2022/01/30 12:12:54;;;;;;;13.50;7.12;;;;;;;13.45;29.79;92923.25;1634363;86;21092;-51
2022/01/30 12:15:41;;;;;;;13.45;7.85;;;;;;;12.95;30.29;92937.12;1641925;86;21103;-50
2022/01/30 12:18:17;;;;;;;10.32;6.08;;;;;;;12.43;31.05;92939.55;1667047;86;21075;-48
2022/01/30 12:21:09;;;;;;;7.40;4.15;;;;;;;11.85;31.97;92945.39;1634158;86;21017;-50
2022/01/30 12:23:37;;;;;;;5.00;3.65;;;;;;;11.24;33.26;92943.06;1634157;87;20985;-50
2022/01/30 12:26:06;;;;;;;2.65;2.35;;;;;;;10.62;34.14;92945.23;1634152;87;21025;-52
2022/01/30 12:28:49;;;;;;;5.62;5.05;;;;;;;10.38;34.73;92944.07;1634345;87;21048;-50
2022/01/30 12:31:38;;;;;;;10.40;9.40;;;;;;;10.02;35.25;92936.54;1634247;87;21716;-49
2022/01/30 12:34:17;;;;;;;6.67;5.95;;;;;;;9.69;36.08;92948.56;1661349;86;21448;-49
2022/01/30 12:36:54;;;;;;;11.48;8.50;;;;;;;9.46;36.62;92929.73;1647527;86;21120;-52
2022/01/30 12:39:22;;;;;;;13.35;8.93;;;;;;;9.30;36.93;92941.91;1617422;87;21106;-49
2022/01/30 12:41:52;;;;;;;16.40;7.53;;;;;;;9.34;37.31;92932.84;1634109;86;20990;-53
2022/01/30 12:44:21;;;;;;;16.65;14.23;;;;;;;9.16;37.34;92915.31;1615866;87;21156;-49
2022/01/30 12:46:53;;;;;;;15.15;12.58;;;;;;;8.91;37.01;92922.88;1658982;86;21032;-49